Time,TemperatureF,DewpointF,PressureIn,WindDirection,WindDirectionDegrees,WindSpeedMPH,WindSpeedGustMPH,Humidity,HourlyPrecipIn,Conditions,Clouds,dailyrainin,SoftwareType,DateUTC
2013-05-22 00:01:00,70.3,67.3,29.76,ESE,112,0.0,0.9,90,0.00,,---,0.00,VWS V14.01,2013-05-22 04:01:00,
2013-05-22 00:02:00,70.3,67.3,29.76,ESE,112,0.0,0.9,90,0.00,,---,0.00,VWS V14.01,2013-05-22 04:02:00,
2013-05-22 00:07:00,70.3,67.3,29.76,ESE,112,0.0,0.0,90,0.00,,---,0.00,VWS V14.01,2013-05-22 04:07:00,
2013-05-22 00:12:00,70.2,67.1,29.76,ESE,112,0.0,0.9,90,0.00,,---,0.00,VWS V14.01,2013-05-22 04:12:00,
2013-05-22 00:17:00,70.2,67.1,29.76,ESE,112,0.0,0.0,90,0.00,,---,0.00,VWS V14.01,2013-05-22 04:17:00,
2013-05-22 00:22:00,70.2,67.1,29.76,ESE,112,0.0,1.1,90,0.00,,---,0.00,VWS V14.01,2013-05-22 04:22:00,
2013-05-22 00:27:00,70.0,66.9,29.74,ESE,112,0.0,0.0,90,0.00,,---,0.00,VWS V14.01,2013-05-22 04:27:00,
2013-05-22 00:32:00,70.0,66.9,29.74,ESE,112,0.0,0.0,90,0.00,,---,0.00,VWS V14.01,2013-05-22 04:32:00,
2013-05-22 00:37:00,69.8,66.7,29.74,ESE,112,0.0,0.0,90,0.00,,---,0.00,VWS V14.01,2013-05-22 04:37:00,
2013-05-22 00:42:00,69.6,66.9,29.74,ESE,112,0.0,0.0,91,0.00,,---,0.00,VWS V14.01,2013-05-22 04:42:00,
2013-05-22 00:47:00,69.4,66.7,29.74,ESE,112,0.0,0.0,91,0.00,,---,0.00,VWS V14.01,2013-05-22 04:47:00,
2013-05-22 00:52:00,69.4,66.7,29.74,ESE,112,0.0,0.0,91,0.00,,---,0.00,VWS V14.01,2013-05-22 04:52:00,
2013-05-22 00:57:00,69.3,66.5,29.74,ESE,112,0.0,0.0,91,0.00,,---,0.00,VWS V14.01,2013-05-22 04:57:00,
2013-05-22 01:02:00,69.1,66.3,29.74,ESE,112,0.0,0.0,91,0.00,,---,0.00,VWS V14.01,2013-05-22 05:02:00,
2013-05-22 01:07:00,69.1,66.7,29.74,ESE,112,0.0,0.0,92,0.00,,---,0.00,VWS V14.01,2013-05-22 05:07:00,
2013-05-22 01:12:00,69.1,66.7,29.74,ESE,112,0.0,0.0,92,0.00,,---,0.00,VWS V14.01,2013-05-22 05:12:00,
2013-05-22 01:17:00,69.1,66.7,29.74,ESE,112,0.0,0.0,92,0.00,,---,0.00,VWS V14.01,2013-05-22 05:17:00,
2013-05-22 01:22:00,68.9,66.5,29.74,ESE,112,0.0,0.0,92,0.00,,---,0.00,VWS V14.01,2013-05-22 05:22:00,
2013-05-22 01:27:00,68.9,66.5,29.74,ESE,112,0.0,0.0,92,0.00,,---,0.00,VWS V14.01,2013-05-22 05:27:00,
2013-05-22 01:32:00,68.9,66.5,29.74,ESE,112,0.0,0.0,92,0.00,,---,0.00,VWS V14.01,2013-05-22 05:32:00,
2013-05-22 01:37:00,68.7,66.6,29.74,ESE,112,0.0,0.0,93,0.00,,---,0.00,VWS V14.01,2013-05-22 05:37:00,
2013-05-22 01:42:00,68.7,66.6,29.74,ESE,112,0.0,0.0,93,0.00,,---,0.00,VWS V14.01,2013-05-22 05:42:00,
2013-05-22 01:47:00,68.7,66.6,29.74,ESE,112,0.0,0.0,93,0.00,,---,0.00,VWS V14.01,2013-05-22 05:47:00,
2013-05-22 01:52:00,68.7,66.6,29.74,ESE,112,0.0,0.0,93,0.00,,---,0.00,VWS V14.01,2013-05-22 05:52:00,
2013-05-22 01:57:00,68.7,66.6,29.74,ESE,112,0.0,0.0,93,0.00,,---,0.00,VWS V14.01,2013-05-22 05:57:00,
2013-05-22 02:02:00,68.7,66.6,29.74,ESE,112,0.0,0.0,93,0.00,,---,0.00,VWS V14.01,2013-05-22 06:02:00,
2013-05-22 02:07:00,68.9,67.1,29.74,ESE,112,0.0,0.0,94,0.00,,---,0.00,VWS V14.01,2013-05-22 06:07:00,
2013-05-22 02:12:00,68.9,67.1,29.71,ESE,112,0.0,0.0,94,0.00,,---,0.00,VWS V14.01,2013-05-22 06:12:00,
2013-05-22 02:17:00,68.7,66.9,29.71,ESE,112,0.0,0.0,94,0.00,,---,0.00,VWS V14.01,2013-05-22 06:17:00,
2013-05-22 02:22:00,68.7,66.9,29.71,ESE,112,0.0,0.0,94,0.00,,---,0.00,VWS V14.01,2013-05-22 06:22:00,
2013-05-22 02:27:00,68.7,66.9,29.71,ESE,112,0.0,0.0,94,0.00,,---,0.00,VWS V14.01,2013-05-22 06:27:00,
2013-05-22 02:32:00,68.7,66.9,29.71,ESE,112,0.0,0.0,94,0.00,,---,0.00,VWS V14.01,2013-05-22 06:32:00,
2013-05-22 02:37:00,68.7,66.9,29.71,ESE,112,0.0,0.0,94,0.00,,---,0.00,VWS V14.01,2013-05-22 06:37:00,
2013-05-22 02:42:00,68.7,66.9,29.71,ESE,112,0.0,0.0,94,0.00,,---,0.00,VWS V14.01,2013-05-22 06:42:00,
2013-05-22 02:47:00,68.7,66.9,29.71,East,90,0.0,0.0,94,0.00,,---,0.00,VWS V14.01,2013-05-22 06:47:00,
2013-05-22 02:52:00,68.7,66.9,29.71,East,90,0.0,0.0,94,0.00,,---,0.00,VWS V14.01,2013-05-22 06:52:00,
2013-05-22 02:57:00,68.7,66.9,29.71,East,90,0.0,0.0,94,0.00,,---,0.00,VWS V14.01,2013-05-22 06:57:00,
2013-05-22 03:02:00,68.9,67.1,29.71,SE,135,2.0,2.0,94,0.00,,---,0.00,VWS V14.01,2013-05-22 07:02:00,
2013-05-22 03:07:00,68.9,67.4,29.71,SE,135,0.0,0.0,95,0.00,,---,0.00,VWS V14.01,2013-05-22 07:07:00,
2013-05-22 03:12:00,68.9,67.4,29.71,SE,135,0.0,0.0,95,0.00,,---,0.00,VWS V14.01,2013-05-22 07:12:00,
2013-05-22 03:17:00,68.9,67.4,29.71,SE,135,0.0,0.0,95,0.00,,---,0.00,VWS V14.01,2013-05-22 07:17:00,
2013-05-22 03:22:00,68.9,67.1,29.71,SE,135,0.0,0.0,94,0.00,,---,0.00,VWS V14.01,2013-05-22 07:22:00,
2013-05-22 03:27:00,68.7,66.9,29.71,SE,135,0.0,0.0,94,0.00,,---,0.00,VWS V14.01,2013-05-22 07:27:00,
2013-05-22 03:32:00,68.5,66.8,29.71,SE,135,0.0,0.0,94,0.00,,---,0.00,VWS V14.01,2013-05-22 07:32:00,
2013-05-22 03:37:00,68.4,66.6,29.71,SE,135,0.0,0.0,94,0.00,,---,0.00,VWS V14.01,2013-05-22 07:37:00,
2013-05-22 03:42:00,68.2,66.4,29.71,SE,135,0.0,0.0,94,0.00,,---,0.00,VWS V14.01,2013-05-22 07:42:00,
2013-05-22 03:47:00,68.0,66.2,29.71,SE,135,0.0,0.0,94,0.00,,---,0.00,VWS V14.01,2013-05-22 07:47:00,
2013-05-22 03:52:00,68.0,66.2,29.71,SE,135,0.0,0.0,94,0.00,,---,0.00,VWS V14.01,2013-05-22 07:52:00,
2013-05-22 03:57:00,68.0,66.5,29.71,SE,135,0.0,0.0,95,0.00,,---,0.00,VWS V14.01,2013-05-22 07:57:00,
2013-05-22 04:02:00,67.8,66.3,29.71,SE,135,0.0,0.0,95,0.00,,---,0.00,VWS V14.01,2013-05-22 08:02:00,
2013-05-22 04:07:00,67.6,66.2,29.71,SE,135,0.0,0.0,95,0.00,,---,0.00,VWS V14.01,2013-05-22 08:07:00,
2013-05-22 04:12:00,67.8,66.3,29.71,SE,135,0.0,0.0,95,0.00,,---,0.00,VWS V14.01,2013-05-22 08:12:00,
2013-05-22 04:17:00,67.8,66.3,29.71,SE,135,0.0,0.0,95,0.00,,---,0.00,VWS V14.01,2013-05-22 08:17:00,
2013-05-22 04:22:00,67.6,66.5,29.71,SE,135,0.0,0.0,96,0.00,,---,0.00,VWS V14.01,2013-05-22 08:22:00,
2013-05-22 04:27:00,67.8,66.6,29.71,SE,135,0.0,0.0,96,0.00,,---,0.00,VWS V14.01,2013-05-22 08:27:00,
2013-05-22 04:32:00,67.6,66.5,29.71,SE,135,0.0,0.0,96,0.00,,---,0.00,VWS V14.01,2013-05-22 08:32:00,
2013-05-22 04:37:00,67.6,66.5,29.71,SE,135,0.0,0.0,96,0.00,,---,0.00,VWS V14.01,2013-05-22 08:37:00,
2013-05-22 04:42:00,67.6,66.5,29.71,SE,135,0.0,0.0,96,0.00,,---,0.00,VWS V14.01,2013-05-22 08:42:00,
2013-05-22 04:47:00,67.6,66.5,29.71,SE,135,0.0,0.0,96,0.00,,---,0.00,VWS V14.01,2013-05-22 08:47:00,
2013-05-22 04:52:00,67.6,66.5,29.71,SE,135,0.0,0.0,96,0.00,,---,0.00,VWS V14.01,2013-05-22 08:52:00,
2013-05-22 04:57:00,67.5,66.3,29.71,SE,135,0.0,0.0,96,0.00,,---,0.00,VWS V14.01,2013-05-22 08:57:00,
2013-05-22 05:02:00,67.5,66.3,29.71,SE,135,0.0,0.0,96,0.00,,---,0.00,VWS V14.01,2013-05-22 09:02:00,
2013-05-22 05:07:00,67.6,66.5,29.71,SE,135,0.0,0.0,96,0.00,,---,0.00,VWS V14.01,2013-05-22 09:07:00,
2013-05-22 05:12:00,67.6,66.5,29.71,SE,135,0.0,0.0,96,0.00,,---,0.00,VWS V14.01,2013-05-22 09:12:00,
2013-05-22 05:17:00,67.6,66.5,29.71,SE,135,0.0,0.0,96,0.00,,---,0.00,VWS V14.01,2013-05-22 09:17:00,
2013-05-22 05:22:00,67.5,66.3,29.71,SE,135,0.0,0.0,96,0.00,,---,0.00,VWS V14.01,2013-05-22 09:22:00,
2013-05-22 05:27:00,67.5,66.3,29.71,SE,135,0.0,0.0,96,0.00,,---,0.00,VWS V14.01,2013-05-22 09:27:00,
2013-05-22 05:33:00,67.5,66.3,29.71,SE,135,0.0,0.0,96,0.00,,---,0.00,VWS V14.01,2013-05-22 09:33:00,
2013-05-22 05:38:00,67.6,66.5,29.71,SE,135,0.0,0.0,96,0.00,,---,0.00,VWS V14.01,2013-05-22 09:38:00,
2013-05-22 05:43:00,67.5,66.3,29.71,SE,135,0.0,0.0,96,0.00,,---,0.00,VWS V14.01,2013-05-22 09:43:00,
2013-05-22 05:48:00,67.3,66.1,29.71,SE,135,0.0,0.0,96,0.00,,---,0.00,VWS V14.01,2013-05-22 09:48:00,
2013-05-22 05:53:00,67.5,66.3,29.71,SE,135,0.0,0.0,96,0.00,,---,0.00,VWS V14.01,2013-05-22 09:53:00,
2013-05-22 05:58:00,67.5,66.3,29.71,SE,135,0.0,0.0,96,0.00,,---,0.00,VWS V14.01,2013-05-22 09:58:00,
2013-05-22 06:03:00,67.3,66.1,29.71,SE,135,0.0,0.0,96,0.00,,---,0.00,VWS V14.01,2013-05-22 10:03:00,
2013-05-22 06:08:00,67.3,66.1,29.71,SE,135,0.0,0.0,96,0.00,,---,0.00,VWS V14.01,2013-05-22 10:08:00,
2013-05-22 06:13:00,67.5,66.3,29.71,SE,135,0.0,0.0,96,0.00,,---,0.00,VWS V14.01,2013-05-22 10:13:00,
2013-05-22 06:18:00,67.3,66.1,29.71,SE,135,0.0,0.0,96,0.00,,---,0.00,VWS V14.01,2013-05-22 10:18:00,
2013-05-22 06:23:00,67.3,66.1,29.71,SE,135,0.0,0.0,96,0.00,,---,0.00,VWS V14.01,2013-05-22 10:23:00,
2013-05-22 06:28:00,67.3,66.1,29.71,SE,135,0.0,0.0,96,0.00,,---,0.00,VWS V14.01,2013-05-22 10:28:00,
2013-05-22 06:33:00,67.3,66.1,29.71,SE,135,0.0,0.0,96,0.00,,---,0.00,VWS V14.01,2013-05-22 10:33:00,
2013-05-22 06:38:00,67.1,65.9,29.71,SE,135,0.0,0.0,96,0.00,,---,0.00,VWS V14.01,2013-05-22 10:38:00,
2013-05-22 06:43:00,67.3,66.1,29.74,SE,135,0.0,0.0,96,0.00,,---,0.00,VWS V14.01,2013-05-22 10:43:00,
2013-05-22 06:48:00,67.3,66.1,29.74,SE,135,0.0,0.0,96,0.00,,---,0.00,VWS V14.01,2013-05-22 10:48:00,
2013-05-22 06:53:00,67.5,66.6,29.74,SE,135,0.0,0.0,97,0.00,,---,0.00,VWS V14.01,2013-05-22 10:53:00,
2013-05-22 06:58:00,67.5,66.6,29.74,SE,135,0.0,0.0,97,0.00,,---,0.00,VWS V14.01,2013-05-22 10:58:00,
2013-05-22 07:03:00,67.6,66.8,29.74,SE,135,0.0,0.0,97,0.00,,---,0.00,VWS V14.01,2013-05-22 11:03:00,
2013-05-22 07:08:00,67.8,66.9,29.74,SE,135,0.0,0.0,97,0.00,,---,0.00,VWS V14.01,2013-05-22 11:08:00,
2013-05-22 07:13:00,68.0,66.8,29.74,SE,135,0.0,0.0,96,0.00,,---,0.00,VWS V14.01,2013-05-22 11:13:00,
2013-05-22 07:18:00,68.2,67.0,29.74,SE,135,0.0,0.0,96,0.00,,---,0.00,VWS V14.01,2013-05-22 11:18:00,
2013-05-22 07:23:00,68.4,67.5,29.74,SE,135,0.0,0.0,97,0.00,,---,0.00,VWS V14.01,2013-05-22 11:23:00,
2013-05-22 07:28:00,68.5,67.7,29.74,SE,135,0.0,0.0,97,0.00,,---,0.00,VWS V14.01,2013-05-22 11:28:00,
2013-05-22 07:33:00,68.9,68.0,29.74,SE,135,0.0,0.0,97,0.00,,---,0.00,VWS V14.01,2013-05-22 11:33:00,
2013-05-22 07:38:00,69.3,68.4,29.74,SE,135,0.0,0.0,97,0.00,,---,0.00,VWS V14.01,2013-05-22 11:38:00,
2013-05-22 07:43:00,70.0,69.1,29.71,SE,135,0.0,0.0,97,0.00,,---,0.00,VWS V14.01,2013-05-22 11:43:00,
2013-05-22 07:48:00,70.3,69.4,29.71,SE,135,0.0,0.0,97,0.00,,---,0.00,VWS V14.01,2013-05-22 11:48:00,
2013-05-22 07:53:00,70.9,70.0,29.71,SE,135,0.0,0.0,97,0.00,,---,0.00,VWS V14.01,2013-05-22 11:53:00,
2013-05-22 07:58:00,71.1,70.2,29.74,SE,135,0.0,0.0,97,0.00,,---,0.00,VWS V14.01,2013-05-22 11:58:00,
2013-05-22 08:03:00,71.2,70.3,29.74,SE,135,0.0,0.0,97,0.00,,---,0.00,VWS V14.01,2013-05-22 12:03:00,
2013-05-22 08:08:00,72.9,71.7,29.74,SE,135,0.0,0.0,96,0.00,,---,0.00,VWS V14.01,2013-05-22 12:08:00,
2013-05-22 08:13:00,73.2,72.0,29.74,SE,135,0.0,0.0,96,0.00,,---,0.00,VWS V14.01,2013-05-22 12:13:00,
2013-05-22 08:18:00,73.9,72.7,29.74,SE,135,0.0,0.0,96,0.00,,---,0.00,VWS V14.01,2013-05-22 12:18:00,
2013-05-22 08:23:00,75.6,74.3,29.74,SE,135,0.0,0.0,96,0.00,,---,0.00,VWS V14.01,2013-05-22 12:23:00,
2013-05-22 08:28:00,77.4,75.8,29.74,NNE,22,2.5,2.5,95,0.00,,---,0.00,VWS V14.01,2013-05-22 12:28:00,
2013-05-22 08:33:00,78.8,77.2,29.74,ENE,68,0.0,1.1,95,0.00,,---,0.00,VWS V14.01,2013-05-22 12:33:00,
2013-05-22 08:38:00,80.1,78.2,29.74,NNW,338,1.6,1.6,94,0.00,,---,0.00,VWS V14.01,2013-05-22 12:38:00,
2013-05-22 08:43:00,81.9,79.3,29.74,SE,135,0.0,2.0,92,0.00,,---,0.00,VWS V14.01,2013-05-22 12:43:00,
2013-05-22 08:48:00,82.8,78.2,29.74,East,90,0.0,0.0,86,0.00,,---,0.00,VWS V14.01,2013-05-22 12:48:00,
2013-05-22 08:53:00,83.8,77.4,29.74,East,90,2.7,3.1,81,0.00,,---,0.00,VWS V14.01,2013-05-22 12:53:00,
2013-05-22 08:58:00,84.7,75.5,29.74,ENE,68,1.6,1.6,74,0.00,,---,0.00,VWS V14.01,2013-05-22 12:58:00,
2013-05-22 09:03:00,85.6,73.9,29.74,ENE,68,0.9,2.5,68,0.00,,---,0.00,VWS V14.01,2013-05-22 13:03:00,
2013-05-22 09:08:00,85.1,72.9,29.74,East,90,1.3,1.3,67,0.00,,---,0.00,VWS V14.01,2013-05-22 13:08:00,
2013-05-22 09:13:00,83.5,70.9,29.74,ENE,68,1.3,2.7,66,0.00,,---,0.00,VWS V14.01,2013-05-22 13:13:00,
2013-05-22 09:18:00,83.3,70.8,29.74,ENE,68,0.0,0.0,66,0.00,,---,0.00,VWS V14.01,2013-05-22 13:18:00,
2013-05-22 09:23:00,84.0,70.5,29.74,East,90,1.3,2.5,64,0.00,,---,0.00,VWS V14.01,2013-05-22 13:23:00,
2013-05-22 09:28:00,83.8,70.4,29.74,ESE,112,2.7,2.7,64,0.00,,---,0.00,VWS V14.01,2013-05-22 13:28:00,
2013-05-22 09:33:00,83.3,69.9,29.74,ENE,68,3.6,3.6,64,0.00,,---,0.00,VWS V14.01,2013-05-22 13:33:00,
2013-05-22 09:38:00,82.8,69.3,29.74,East,90,2.2,3.1,64,0.00,,---,0.00,VWS V14.01,2013-05-22 13:38:00,
2013-05-22 09:43:00,83.1,69.2,29.74,East,90,3.1,3.1,63,0.00,,---,0.00,VWS V14.01,2013-05-22 13:43:00,
2013-05-22 09:48:00,84.7,70.8,29.74,East,90,0.0,2.0,63,0.00,,---,0.00,VWS V14.01,2013-05-22 13:48:00,
2013-05-22 09:53:00,85.3,70.8,29.74,East,90,0.0,0.0,62,0.00,,---,0.00,VWS V14.01,2013-05-22 13:53:00,
2013-05-22 09:58:00,86.5,71.5,29.76,East,90,0.0,1.3,61,0.00,,---,0.00,VWS V14.01,2013-05-22 13:58:00,
2013-05-22 10:03:00,88.2,72.5,29.76,SSW,202,2.0,2.7,60,0.00,,---,0.00,VWS V14.01,2013-05-22 14:03:00,
2013-05-22 10:08:00,89.4,70.6,29.76,ESE,112,3.6,4.3,54,0.00,,---,0.00,VWS V14.01,2013-05-22 14:08:00,
2013-05-22 10:14:00,88.9,68.4,29.74,ESE,112,0.9,2.5,51,0.00,,---,0.00,VWS V14.01,2013-05-22 14:14:00,
2013-05-22 10:19:00,91.8,71.1,29.74,NE,45,2.9,2.9,51,0.00,,---,0.00,VWS V14.01,2013-05-22 14:19:00,
2013-05-22 10:24:00,93.2,70.0,29.74,NE,45,1.3,1.3,47,0.00,,---,0.00,VWS V14.01,2013-05-22 14:24:00,
2013-05-22 10:29:00,89.4,65.3,29.74,SE,135,3.8,4.0,45,0.00,,---,0.00,VWS V14.01,2013-05-22 14:29:00,
2013-05-22 10:34:00,88.2,66.0,29.74,ESE,112,0.0,2.5,48,0.00,,---,0.00,VWS V14.01,2013-05-22 14:34:00,
2013-05-22 10:39:00,87.1,64.4,29.74,SE,135,0.0,2.0,47,0.00,,---,0.00,VWS V14.01,2013-05-22 14:39:00,
2013-05-22 10:44:00,90.0,68.2,29.74,SW,225,4.0,4.0,49,0.00,,---,0.00,VWS V14.01,2013-05-22 14:44:00,
2013-05-22 10:49:00,93.0,69.2,29.74,ESE,112,2.9,4.0,46,0.00,,---,0.00,VWS V14.01,2013-05-22 14:49:00,
2013-05-22 10:54:00,90.7,66.4,29.74,SE,135,0.0,1.3,45,0.00,,---,0.00,VWS V14.01,2013-05-22 14:54:00,
2013-05-22 10:59:00,92.3,67.9,29.74,SSW,202,2.5,3.1,45,0.00,,---,0.00,VWS V14.01,2013-05-22 14:59:00,
2013-05-22 11:04:00,89.4,65.9,29.74,SW,225,1.6,2.5,46,0.00,,---,0.00,VWS V14.01,2013-05-22 15:04:00,
2013-05-22 11:09:00,90.5,66.9,29.74,ESE,112,1.1,3.1,46,0.00,,---,0.00,VWS V14.01,2013-05-22 15:09:00,
2013-05-22 11:14:00,91.4,66.4,29.76,ESE,112,1.1,3.8,44,0.00,,---,0.00,VWS V14.01,2013-05-22 15:14:00,
2013-05-22 11:19:00,93.2,67.4,29.76,NE,45,0.9,0.9,43,0.00,,---,0.00,VWS V14.01,2013-05-22 15:19:00,
2013-05-22 11:24:00,95.4,67.2,29.76,SW,225,3.1,3.1,40,0.00,,---,0.00,VWS V14.01,2013-05-22 15:24:00,
2013-05-22 11:29:00,95.9,67.7,29.74,ENE,68,3.1,3.1,40,0.00,,---,0.00,VWS V14.01,2013-05-22 15:29:00,
2013-05-22 11:34:00,96.6,67.6,29.74,East,90,1.6,1.6,39,0.00,,---,0.00,VWS V14.01,2013-05-22 15:34:00,
2013-05-22 11:39:00,97.0,66.4,29.74,ENE,68,1.1,2.9,37,0.00,,---,0.00,VWS V14.01,2013-05-22 15:39:00,
2013-05-22 11:44:00,97.7,67.1,29.76,ENE,68,2.0,2.0,37,0.00,,---,0.00,VWS V14.01,2013-05-22 15:44:00,
2013-05-22 11:49:00,94.6,64.3,29.76,East,90,0.0,0.0,37,0.00,,---,0.00,VWS V14.01,2013-05-22 15:49:00,
2013-05-22 11:54:00,96.4,65.2,29.76,ESE,112,2.2,3.4,36,0.00,,---,0.00,VWS V14.01,2013-05-22 15:54:00,
2013-05-22 11:59:00,96.1,64.8,29.76,SSW,202,3.1,3.4,36,0.00,,---,0.00,VWS V14.01,2013-05-22 15:59:00,
2013-05-22 12:04:00,93.7,63.6,29.76,SE,135,2.2,2.2,37,0.00,,---,0.00,VWS V14.01,2013-05-22 16:04:00,
2013-05-22 12:09:00,91.8,62.6,29.76,South,180,0.0,0.0,38,0.00,,---,0.00,VWS V14.01,2013-05-22 16:09:00,
2013-05-22 12:14:00,92.8,64.3,29.74,SSW,202,1.3,1.3,39,0.00,,---,0.00,VWS V14.01,2013-05-22 16:14:00,
2013-05-22 12:19:00,94.8,65.3,29.74,South,180,2.5,4.3,38,0.00,,---,0.00,VWS V14.01,2013-05-22 16:19:00,
2013-05-22 12:24:00,95.7,64.5,29.74,SE,135,1.3,1.3,36,0.00,,---,0.00,VWS V14.01,2013-05-22 16:24:00,
2013-05-22 12:29:00,93.0,62.9,29.74,WNW,292,0.0,1.3,37,0.00,,---,0.00,VWS V14.01,2013-05-22 16:29:00,
2013-05-22 12:34:00,93.2,63.1,29.74,NNW,338,4.0,4.0,37,0.00,,---,0.00,VWS V14.01,2013-05-22 16:34:00,
2013-05-22 12:39:00,94.3,64.0,29.74,NW,315,3.1,3.1,37,0.00,,---,0.00,VWS V14.01,2013-05-22 16:39:00,
2013-05-22 12:44:00,91.8,61.0,29.74,East,90,4.0,4.3,36,0.00,,---,0.00,VWS V14.01,2013-05-22 16:44:00,
2013-05-22 12:49:00,90.7,61.6,29.74,SW,225,1.6,2.2,38,0.00,,---,0.00,VWS V14.01,2013-05-22 16:49:00,
2013-05-22 12:54:00,91.8,62.6,29.74,SE,135,2.7,2.7,38,0.00,,---,0.00,VWS V14.01,2013-05-22 16:54:00,
2013-05-22 12:59:00,91.9,63.5,29.74,East,90,3.6,3.6,39,0.00,,---,0.00,VWS V14.01,2013-05-22 16:59:00,
2013-05-22 13:04:00,94.6,64.3,29.74,ENE,68,3.6,4.0,37,0.00,,---,0.00,VWS V14.01,2013-05-22 17:04:00,
2013-05-22 13:09:00,95.7,63.7,29.74,NW,315,4.0,4.3,35,0.00,,---,0.00,VWS V14.01,2013-05-22 17:09:00,
2013-05-22 13:14:00,91.8,59.4,29.74,ESE,112,3.1,4.3,34,0.00,,---,0.00,VWS V14.01,2013-05-22 17:14:00,
2013-05-22 13:19:00,90.3,59.8,29.74,ESE,112,2.0,4.3,36,0.00,,---,0.00,VWS V14.01,2013-05-22 17:19:00,
2013-05-22 13:24:00,92.8,62.8,29.74,ESE,112,0.9,2.5,37,0.00,,---,0.00,VWS V14.01,2013-05-22 17:24:00,
2013-05-22 13:29:00,95.9,63.9,29.71,SSW,202,2.5,2.7,35,0.00,,---,0.00,VWS V14.01,2013-05-22 17:29:00,
2013-05-22 13:34:00,96.1,63.2,29.71,ESE,112,3.8,5.6,34,0.00,,---,0.00,VWS V14.01,2013-05-22 17:34:00,
2013-05-22 13:39:00,95.9,61.3,29.71,ESE,112,1.3,2.9,32,0.00,,---,0.00,VWS V14.01,2013-05-22 17:39:00,
2013-05-22 13:44:00,95.7,62.9,29.71,SE,135,3.1,3.1,34,0.00,,---,0.00,VWS V14.01,2013-05-22 17:44:00,
2013-05-22 13:49:00,96.8,63.8,29.71,NE,45,2.7,3.1,34,0.00,,---,0.00,VWS V14.01,2013-05-22 17:49:00,
2013-05-22 13:54:00,97.3,59.8,29.71,ESE,112,2.9,4.7,29,0.00,,---,0.00,VWS V14.01,2013-05-22 17:54:00,
2013-05-22 14:00:00,95.9,60.4,29.71,ENE,68,3.6,6.0,31,0.00,,---,0.00,VWS V14.01,2013-05-22 18:00:00,
2013-05-22 14:05:00,93.9,59.6,29.71,East,90,2.0,2.5,32,0.00,,---,0.00,VWS V14.01,2013-05-22 18:05:00,
2013-05-22 14:10:00,96.3,62.5,29.71,NE,45,1.3,4.3,33,0.00,,---,0.00,VWS V14.01,2013-05-22 18:10:00,
2013-05-22 14:15:00,97.5,62.7,29.71,ENE,68,2.0,5.4,32,0.00,,---,0.00,VWS V14.01,2013-05-22 18:15:00,
2013-05-22 14:20:00,95.9,60.4,29.71,East,90,2.9,3.4,31,0.00,,---,0.00,VWS V14.01,2013-05-22 18:20:00,
2013-05-22 14:25:00,95.0,61.4,29.71,SE,135,6.0,6.3,33,0.00,,---,0.00,VWS V14.01,2013-05-22 18:25:00,
2013-05-22 14:30:00,89.6,60.7,29.71,North,0,3.1,6.5,38,0.00,,---,0.00,VWS V14.01,2013-05-22 18:30:00,
2013-05-22 14:35:00,87.4,61.5,29.71,NW,315,4.0,6.0,42,0.00,,---,0.00,VWS V14.01,2013-05-22 18:35:00,
2013-05-22 14:40:00,86.2,61.7,29.71,NE,45,6.0,6.5,44,0.00,,---,0.00,VWS V14.01,2013-05-22 18:40:00,
2013-05-22 14:45:00,84.7,61.7,29.71,North,0,7.2,7.2,46,0.00,,---,0.00,VWS V14.01,2013-05-22 18:45:00,
2013-05-22 14:50:00,83.7,61.9,29.71,North,0,4.0,10.7,48,0.00,,---,0.00,VWS V14.01,2013-05-22 18:50:00,
2013-05-22 14:55:00,82.6,62.1,29.71,NE,45,6.5,6.5,50,0.00,,---,0.00,VWS V14.01,2013-05-22 18:55:00,
2013-05-22 15:00:00,81.9,63.1,29.71,NE,45,4.0,5.4,53,0.00,,---,0.00,VWS V14.01,2013-05-22 19:00:00,
2013-05-22 15:05:00,81.3,63.1,29.71,ENE,68,4.9,6.3,54,0.00,,---,0.00,VWS V14.01,2013-05-22 19:05:00,
2013-05-22 15:10:00,79.9,66.2,29.71,North,0,8.1,8.1,63,0.08,,---,0.08,VWS V14.01,2013-05-22 19:10:00,
2013-05-22 15:15:00,78.1,66.2,29.71,North,0,8.1,8.1,67,0.12,,---,0.12,VWS V14.01,2013-05-22 19:15:00,
2013-05-22 15:20:00,77.5,66.6,29.71,North,0,8.1,8.1,69,0.16,,---,0.16,VWS V14.01,2013-05-22 19:20:00,
2013-05-22 15:25:00,76.6,68.9,29.71,North,0,8.1,8.1,77,0.16,,---,0.16,VWS V14.01,2013-05-22 19:25:00,
2013-05-22 15:30:00,76.1,68.8,29.71,West,270,5.4,5.4,78,0.21,,---,0.21,VWS V14.01,2013-05-22 19:30:00,
2013-05-22 15:35:00,75.4,68.1,29.71,WNW,292,7.4,7.4,78,0.21,,---,0.21,VWS V14.01,2013-05-22 19:35:00,
2013-05-22 15:40:00,74.8,68.6,29.71,SW,225,2.7,4.7,81,0.21,,---,0.21,VWS V14.01,2013-05-22 19:40:00,
2013-05-22 15:45:00,74.7,69.2,29.71,NW,315,3.4,6.0,83,0.21,,---,0.21,VWS V14.01,2013-05-22 19:45:00,
2013-05-22 15:50:00,75.0,69.5,29.71,NW,315,7.4,7.4,83,0.21,,---,0.21,VWS V14.01,2013-05-22 19:50:00,
2013-05-22 15:55:00,75.4,69.5,29.71,NW,315,5.6,5.6,82,0.29,,---,0.29,VWS V14.01,2013-05-22 19:55:00,
2013-05-22 16:00:00,77.5,71.2,29.71,NW,315,5.6,5.6,81,0.33,,---,0.33,VWS V14.01,2013-05-22 20:00:00,
2013-05-22 16:05:00,77.9,71.2,29.71,NE,45,3.4,3.4,80,0.33,,---,0.33,VWS V14.01,2013-05-22 20:05:00,
2013-05-22 16:10:00,78.1,71.0,29.71,NNE,22,2.0,2.0,79,0.25,,---,0.33,VWS V14.01,2013-05-22 20:10:00,
2013-05-22 16:15:00,78.4,71.0,29.71,North,0,0.0,1.6,78,0.21,,---,0.33,VWS V14.01,2013-05-22 20:15:00,
2013-05-22 16:20:00,79.2,71.3,29.71,NNE,22,0.9,1.6,77,0.17,,---,0.33,VWS V14.01,2013-05-22 20:20:00,
2013-05-22 16:25:00,79.7,71.9,29.71,North,0,4.0,4.0,77,0.17,,---,0.33,VWS V14.01,2013-05-22 20:25:00,
2013-05-22 16:30:00,80.2,71.6,29.71,ENE,68,2.2,2.2,75,0.12,,---,0.33,VWS V14.01,2013-05-22 20:30:00,
2013-05-22 16:35:00,81.1,71.3,29.71,NNE,22,2.7,3.6,72,0.12,,---,0.33,VWS V14.01,2013-05-22 20:35:00,
2013-05-22 16:40:00,83.8,72.2,29.71,ESE,112,4.7,4.7,68,0.12,,---,0.33,VWS V14.01,2013-05-22 20:40:00,
2013-05-22 16:45:00,81.5,69.5,29.71,ENE,68,3.8,3.8,67,0.12,,---,0.33,VWS V14.01,2013-05-22 20:45:00,
2013-05-22 16:50:00,80.2,68.3,29.71,East,90,5.8,6.5,67,0.12,,---,0.33,VWS V14.01,2013-05-22 20:50:00,
2013-05-22 16:55:00,79.7,68.2,29.71,ESE,112,3.6,3.6,68,0.04,,---,0.33,VWS V14.01,2013-05-22 20:55:00,
2013-05-22 17:00:00,79.2,68.1,29.71,SE,135,2.0,3.6,69,0.00,,---,0.33,VWS V14.01,2013-05-22 21:00:00,
2013-05-22 17:05:00,78.4,67.4,29.71,ESE,112,1.1,1.6,69,0.00,,---,0.33,VWS V14.01,2013-05-22 21:05:00,
2013-05-22 17:10:00,78.6,68.0,29.71,SE,135,2.5,2.5,70,0.00,,---,0.33,VWS V14.01,2013-05-22 21:10:00,
2013-05-22 17:15:00,81.5,71.2,29.71,NE,45,2.5,2.7,71,0.00,,---,0.33,VWS V14.01,2013-05-22 21:15:00,
2013-05-22 17:20:00,83.8,72.2,29.71,NE,45,2.7,4.0,68,0.00,,---,0.33,VWS V14.01,2013-05-22 21:20:00,
2013-05-22 17:25:00,82.4,69.5,29.68,ESE,112,3.6,3.6,65,0.00,,---,0.33,VWS V14.01,2013-05-22 21:25:00,
2013-05-22 17:30:00,81.1,67.8,29.68,East,90,3.6,3.6,64,0.00,,---,0.33,VWS V14.01,2013-05-22 21:30:00,
2013-05-22 17:35:00,79.9,67.5,29.68,ESE,112,2.9,2.9,66,0.00,,---,0.33,VWS V14.01,2013-05-22 21:35:00,
2013-05-22 17:40:00,79.2,67.3,29.71,ESE,112,0.0,0.0,67,0.00,,---,0.33,VWS V14.01,2013-05-22 21:40:00,
2013-05-22 17:45:00,78.8,67.4,29.71,ESE,112,0.0,0.0,68,0.00,,---,0.33,VWS V14.01,2013-05-22 21:45:00,
2013-05-22 17:50:00,78.3,67.3,29.71,ESE,112,2.9,2.9,69,0.00,,---,0.33,VWS V14.01,2013-05-22 21:50:00,
2013-05-22 17:55:00,78.1,67.1,29.68,East,90,1.6,2.0,69,0.00,,---,0.33,VWS V14.01,2013-05-22 21:55:00,
2013-05-22 18:00:00,78.6,68.0,29.68,SE,135,3.4,3.6,70,0.00,,---,0.33,VWS V14.01,2013-05-22 22:00:00,
2013-05-22 18:05:00,81.9,70.3,29.68,ESE,112,1.1,2.0,68,0.00,,---,0.33,VWS V14.01,2013-05-22 22:05:00,
2013-05-22 18:10:00,82.4,69.5,29.68,ESE,112,1.3,1.3,65,0.00,,---,0.33,VWS V14.01,2013-05-22 22:10:00,
2013-05-22 18:16:00,82.0,68.2,29.68,ESE,112,2.0,2.0,63,0.00,,---,0.33,VWS V14.01,2013-05-22 22:16:00,
2013-05-22 18:21:00,81.1,66.9,29.68,ESE,112,2.2,2.7,62,0.00,,---,0.33,VWS V14.01,2013-05-22 22:21:00,
2013-05-22 18:26:00,80.1,66.8,29.71,ESE,112,2.2,2.2,64,0.00,,---,0.33,VWS V14.01,2013-05-22 22:26:00,
2013-05-22 18:31:00,79.3,66.6,29.71,ESE,112,1.3,2.0,65,0.00,,---,0.33,VWS V14.01,2013-05-22 22:31:00,
2013-05-22 18:36:00,78.8,66.5,29.71,ENE,68,1.3,4.0,66,0.00,,---,0.33,VWS V14.01,2013-05-22 22:36:00,
2013-05-22 18:41:00,78.6,66.8,29.71,ESE,112,0.0,0.0,67,0.00,,---,0.33,VWS V14.01,2013-05-22 22:41:00,
2013-05-22 18:46:00,78.3,66.8,29.71,SSE,158,0.0,0.0,68,0.00,,---,0.33,VWS V14.01,2013-05-22 22:46:00,
2013-05-22 18:51:00,78.4,67.0,29.71,SSE,158,1.1,2.5,68,0.00,,---,0.33,VWS V14.01,2013-05-22 22:51:00,
2013-05-22 18:56:00,78.4,67.4,29.71,ESE,112,0.0,1.1,69,0.00,,---,0.33,VWS V14.01,2013-05-22 22:56:00,
2013-05-22 19:01:00,78.4,67.4,29.71,ESE,112,0.0,1.1,69,0.00,,---,0.33,VWS V14.01,2013-05-22 23:01:00,
2013-05-22 19:06:00,78.6,67.6,29.71,ESE,112,2.0,2.0,69,0.00,,---,0.33,VWS V14.01,2013-05-22 23:06:00,
2013-05-22 19:11:00,78.3,67.7,29.68,East,90,2.5,4.3,70,0.00,,---,0.33,VWS V14.01,2013-05-22 23:11:00,
2013-05-22 19:16:00,77.9,67.3,29.68,ESE,112,0.0,0.0,70,0.00,,---,0.33,VWS V14.01,2013-05-22 23:16:00,
2013-05-22 19:21:00,77.7,67.2,29.68,ESE,112,2.2,2.7,70,0.00,,---,0.33,VWS V14.01,2013-05-22 23:21:00,
2013-05-22 19:26:00,77.4,67.2,29.71,ESE,112,1.1,1.1,71,0.00,,---,0.33,VWS V14.01,2013-05-22 23:26:00,
2013-05-22 19:31:00,77.0,67.3,29.71,North,0,2.9,2.9,72,0.00,,---,0.33,VWS V14.01,2013-05-22 23:31:00,
2013-05-22 19:36:00,76.5,66.8,29.71,North,0,0.0,0.0,72,0.00,,---,0.33,VWS V14.01,2013-05-22 23:36:00,
2013-05-22 19:41:00,76.3,67.4,29.71,North,0,0.0,0.0,74,0.00,,---,0.33,VWS V14.01,2013-05-22 23:41:00,
2013-05-22 19:46:00,75.9,67.0,29.71,North,0,0.0,0.0,74,0.00,,---,0.33,VWS V14.01,2013-05-22 23:46:00,
2013-05-22 19:51:00,75.7,67.3,29.71,North,0,0.0,0.0,75,0.00,,---,0.33,VWS V14.01,2013-05-22 23:51:00,
2013-05-22 19:56:00,75.4,67.3,29.71,SE,135,1.6,1.6,76,0.00,,---,0.33,VWS V14.01,2013-05-22 23:56:00,
2013-05-22 20:01:00,75.2,67.5,29.71,NNE,22,2.2,2.2,77,0.00,,---,0.33,VWS V14.01,2013-05-23 00:01:00,
2013-05-22 20:06:00,75.2,67.9,29.71,NE,45,1.6,2.2,78,0.00,,---,0.33,VWS V14.01,2013-05-23 00:06:00,
2013-05-22 20:11:00,75.2,68.2,29.71,NE,45,0.0,0.0,79,0.00,,---,0.33,VWS V14.01,2013-05-23 00:11:00,
2013-05-22 20:16:00,74.8,67.9,29.71,NE,45,0.0,0.0,79,0.00,,---,0.33,VWS V14.01,2013-05-23 00:16:00,
2013-05-22 20:21:00,74.7,67.7,29.71,NE,45,0.0,0.0,79,0.00,,---,0.33,VWS V14.01,2013-05-23 00:21:00,
2013-05-22 20:26:00,74.3,67.7,29.71,NE,45,0.0,1.1,80,0.00,,---,0.33,VWS V14.01,2013-05-23 00:26:00,
2013-05-22 20:31:00,73.9,67.4,29.71,NE,45,0.0,0.0,80,0.00,,---,0.33,VWS V14.01,2013-05-23 00:31:00,
2013-05-22 20:36:00,73.8,67.2,29.71,NE,45,0.0,0.0,80,0.00,,---,0.33,VWS V14.01,2013-05-23 00:36:00,
2013-05-22 20:41:00,73.6,67.4,29.71,NE,45,0.0,0.0,81,0.00,,---,0.33,VWS V14.01,2013-05-23 00:41:00,
2013-05-22 20:46:00,73.4,67.6,29.71,ENE,68,2.0,2.0,82,0.00,,---,0.33,VWS V14.01,2013-05-23 00:46:00,
2013-05-22 20:51:00,73.0,67.6,29.71,ENE,68,0.0,1.3,83,0.00,,---,0.33,VWS V14.01,2013-05-23 00:51:00,
2013-05-22 20:57:00,73.4,68.3,29.71,SE,135,2.0,2.0,84,0.00,,---,0.33,VWS V14.01,2013-05-23 00:57:00,
2013-05-22 21:02:00,73.8,69.7,29.71,ESE,112,6.0,6.0,87,0.00,,---,0.33,VWS V14.01,2013-05-23 01:02:00,
2013-05-22 21:07:00,73.9,69.5,29.71,SE,135,5.8,5.8,86,0.00,,---,0.33,VWS V14.01,2013-05-23 01:07:00,
2013-05-22 21:12:00,74.1,69.0,29.71,East,90,2.7,2.7,84,0.00,,---,0.33,VWS V14.01,2013-05-23 01:12:00,
2013-05-22 21:17:00,74.1,68.3,29.71,East,90,1.6,1.6,82,0.00,,---,0.33,VWS V14.01,2013-05-23 01:17:00,
2013-05-22 21:22:00,73.8,67.6,29.71,East,90,0.0,0.0,81,0.00,,---,0.33,VWS V14.01,2013-05-23 01:22:00,
2013-05-22 21:27:00,73.4,67.2,29.71,NNE,22,1.3,1.3,81,0.00,,---,0.33,VWS V14.01,2013-05-23 01:27:00,
2013-05-22 21:32:00,73.0,67.2,29.71,East,90,0.0,1.6,82,0.00,,---,0.33,VWS V14.01,2013-05-23 01:32:00,
2013-05-22 21:37:00,72.9,67.1,29.71,East,90,0.0,0.0,82,0.00,,---,0.33,VWS V14.01,2013-05-23 01:37:00,
2013-05-22 21:42:00,72.9,67.1,29.71,East,90,0.0,0.9,82,0.00,,---,0.33,VWS V14.01,2013-05-23 01:42:00,
2013-05-22 21:47:00,72.9,67.4,29.71,East,90,0.0,0.0,83,0.00,,---,0.33,VWS V14.01,2013-05-23 01:47:00,
2013-05-22 21:52:00,72.5,67.1,29.71,East,90,0.0,0.0,83,0.00,,---,0.33,VWS V14.01,2013-05-23 01:52:00,
2013-05-22 21:57:00,72.5,67.4,29.71,SE,135,2.0,2.0,84,0.00,,---,0.33,VWS V14.01,2013-05-23 01:57:00,
2013-05-22 22:02:00,72.3,67.2,29.71,SE,135,0.0,0.0,84,0.00,,---,0.33,VWS V14.01,2013-05-23 02:02:00,
2013-05-22 22:07:00,72.1,67.0,29.71,SE,135,0.0,0.0,84,0.00,,---,0.33,VWS V14.01,2013-05-23 02:07:00,
2013-05-22 22:12:00,72.0,67.2,29.71,SE,135,0.0,0.0,85,0.00,,---,0.33,VWS V14.01,2013-05-23 02:12:00,
2013-05-22 22:17:00,71.8,67.0,29.71,SE,135,0.0,0.0,85,0.00,,---,0.33,VWS V14.01,2013-05-23 02:17:00,
2013-05-22 22:22:00,71.6,66.9,29.71,SE,135,0.0,0.0,85,0.00,,---,0.33,VWS V14.01,2013-05-23 02:22:00,
2013-05-22 22:27:00,71.4,67.0,29.74,SE,135,0.0,0.0,86,0.00,,---,0.33,VWS V14.01,2013-05-23 02:27:00,
2013-05-22 22:32:00,71.4,67.0,29.74,SE,135,0.0,0.0,86,0.00,,---,0.33,VWS V14.01,2013-05-23 02:32:00,
2013-05-22 22:37:00,71.2,67.2,29.74,SE,135,0.0,0.0,87,0.00,,---,0.33,VWS V14.01,2013-05-23 02:37:00,
2013-05-22 22:42:00,71.2,67.2,29.74,SE,135,0.0,0.0,87,0.00,,---,0.33,VWS V14.01,2013-05-23 02:42:00,
2013-05-22 22:47:00,71.2,67.5,29.74,SE,135,0.0,0.0,88,0.00,,---,0.33,VWS V14.01,2013-05-23 02:47:00,
2013-05-22 22:52:00,71.1,67.3,29.74,SE,135,0.0,0.0,88,0.00,,---,0.33,VWS V14.01,2013-05-23 02:52:00,
2013-05-22 22:57:00,70.9,67.2,29.71,SE,135,0.0,0.0,88,0.00,,---,0.33,VWS V14.01,2013-05-23 02:57:00,
2013-05-22 23:02:00,70.9,67.2,29.71,SE,135,0.0,0.0,88,0.00,,---,0.33,VWS V14.01,2013-05-23 03:02:00,
2013-05-22 23:07:00,70.9,67.5,29.71,SE,135,0.0,0.0,89,0.00,,---,0.33,VWS V14.01,2013-05-23 03:07:00,
2013-05-22 23:16:00,71.1,67.7,29.74,North,0,0.0,0.0,89,0.00,,---,0.33,VWS V14.01,2013-05-23 03:16:00,
2013-05-22 23:21:00,71.1,67.7,29.74,North,0,0.0,0.0,89,0.00,,---,0.33,VWS V14.01,2013-05-23 03:21:00,
2013-05-22 23:26:00,70.9,67.5,29.74,North,0,0.0,0.0,89,0.00,,---,0.33,VWS V14.01,2013-05-23 03:26:00,
2013-05-22 23:31:00,70.9,67.8,29.74,North,0,0.0,0.0,90,0.00,,---,0.33,VWS V14.01,2013-05-23 03:31:00,
2013-05-22 23:36:00,70.9,67.8,29.74,North,0,0.0,0.0,90,0.00,,---,0.33,VWS V14.01,2013-05-23 03:36:00,
2013-05-22 23:41:00,70.9,67.8,29.74,North,0,1.1,1.1,90,0.00,,---,0.33,VWS V14.01,2013-05-23 03:41:00,
2013-05-22 23:46:00,70.7,67.6,29.74,North,0,0.0,0.0,90,0.00,,---,0.33,VWS V14.01,2013-05-23 03:46:00,
2013-05-22 23:51:00,70.9,67.8,29.74,North,0,0.0,0.0,90,0.00,,---,0.33,VWS V14.01,2013-05-23 03:51:00,
2013-05-22 23:56:00,70.9,67.8,29.71,North,0,0.0,0.0,90,0.00,,---,0.33,VWS V14.01,2013-05-23 03:56:00,